Time;durP1;ratioP1;P1;durP2;ratioP2;P2;SDS_P1;SDS_P2;PMS_P1;PMS_P2;Temp;Humidity;BMP_temperature;BMP_pressure;BME280_temperature;BME280_humidity;BME280_pressure;Samples;Min_cycle;Max_cycle;Signal;HPM_P1;HPM_P2
2023/07/06 00:01:07;;;;;;;;;5.00;3.67;;;;;;;;5050242;28;9084;-88
2023/07/06 00:03:38;;;;;;;;;1.00;1.00;;;;;;;;5049823;28;9188;-87
2023/07/06 00:06:07;;;;;;;;;2.00;2.00;;;;;;;;5052167;28;9295;-88
2023/07/06 00:08:37;;;;;;;;;2.33;2.33;;;;;;;;5046651;28;9320;-85
2023/07/06 00:11:06;;;;;;;;;2.00;2.00;;;;;;;;5047506;28;9367;-84
2023/07/06 00:13:34;;;;;;;;;3.00;3.00;;;;;;;;5050083;28;9252;-83
2023/07/06 00:16:03;;;;;;;;;2.00;2.00;;;;;;;;5048969;28;9394;-85
2023/07/06 00:18:32;;;;;;;;;2.00;2.00;;;;;;;;5049570;28;9374;-86
2023/07/06 00:20:59;;;;;;;;;3.33;2.00;;;;;;;;5049615;28;9401;-88
2023/07/06 00:23:28;;;;;;;;;3.00;3.00;;;;;;;;5049466;28;9332;-86
2023/07/06 00:25:55;;;;;;;;;3.25;3.25;;;;;;;;5049325;28;9427;-88
2023/07/06 00:28:24;;;;;;;;;3.00;3.00;;;;;;;;5048858;28;9518;-86
2023/07/06 00:31:01;;;;;;;;;3.00;3.00;;;;;;;;5048983;28;9434;-88
2023/07/06 00:33:34;;;;;;;;;3.33;3.33;;;;;;;;5048566;28;9416;-88
2023/07/06 00:36:03;;;;;;;;;5.00;3.00;;;;;;;;5050458;28;9340;-88
2023/07/06 00:38:30;;;;;;;;;3.50;3.50;;;;;;;;5049858;28;9468;-86
2023/07/06 00:41:02;;;;;;;;;9.25;8.75;;;;;;;;5062520;28;9408;-87
2023/07/06 00:43:51;;;;;;;;;4.50;4.50;;;;;;;;5051558;28;9636;-86
2023/07/06 00:46:18;;;;;;;;;2.00;2.00;;;;;;;;5055869;28;9591;-85
2023/07/06 00:48:49;;;;;;;;;2.00;2.00;;;;;;;;5057464;28;9641;-86
2023/07/06 00:51:20;;;;;;;;;2.50;2.50;;;;;;;;5051097;28;9468;-86
2023/07/06 00:53:51;;;;;;;;;2.75;2.75;;;;;;;;5054449;28;9502;-86
2023/07/06 00:56:23;;;;;;;;;2.00;2.00;;;;;;;;5054576;28;9417;-86
2023/07/06 00:59:02;;;;;;;;;4.25;2.50;;;;;;;;5054113;28;9409;-86
2023/07/06 01:01:32;;;;;;;;;3.25;2.00;;;;;;;;5053459;28;9395;-85
2023/07/06 01:04:03;;;;;;;;;3.50;2.50;;;;;;;;5054502;28;9628;-86
2023/07/06 01:06:32;;;;;;;;;2.25;2.25;;;;;;;;5054886;28;9448;-85
2023/07/06 01:09:00;;;;;;;;;4.00;2.00;;;;;;;;5055450;28;9566;-86
2023/07/06 01:11:29;;;;;;;;;4.00;3.00;;;;;;;;5055689;28;9393;-85
2023/07/06 01:13:57;;;;;;;;;1.75;1.75;;;;;;;;5063685;28;9547;-85
2023/07/06 01:16:30;;;;;;;;;3.75;2.75;;;;;;;;5056123;28;9546;-85
2023/07/06 01:19:07;;;;;;;;;3.00;3.00;;;;;;;;5065795;28;9556;-85
2023/07/06 01:21:45;;;;;;;;;3.00;3.00;;;;;;;;5053400;28;10497;-86
2023/07/06 01:24:34;;;;;;;;;4.00;4.00;;;;;;;;5052676;28;9543;-87
2023/07/06 01:27:20;;;;;;;;;3.25;3.25;;;;;;;;5056410;28;9635;-87
2023/07/06 01:30:09;;;;;;;;;5.00;5.00;;;;;;;;5052719;28;9578;-86
2023/07/06 01:32:41;;;;;;;;;5.00;5.00;;;;;;;;5044122;28;9576;-87
2023/07/06 01:35:14;;;;;;;;;4.00;4.00;;;;;;;;5057425;28;9909;-87
2023/07/06 01:37:45;;;;;;;;;3.75;3.75;;;;;;;;5061022;28;9700;-87
2023/07/06 01:40:13;;;;;;;;;3.75;3.75;;;;;;;;5071489;28;9784;-86
2023/07/06 01:42:42;;;;;;;;;3.00;3.00;;;;;;;;5071780;28;10480;-86
2023/07/06 01:45:16;;;;;;;;;5.25;4.00;;;;;;;;5070911;28;9795;-87
2023/07/06 01:47:46;;;;;;;;;3.25;3.25;;;;;;;;5071624;28;9766;-87
2023/07/06 01:50:14;;;;;;;;;5.00;3.75;;;;;;;;5058375;28;9892;-86
2023/07/06 01:52:54;;;;;;;;;2.00;1.00;;;;;;;;5062895;28;9884;-86
2023/07/06 01:55:27;;;;;;;;;4.75;4.75;;;;;;;;5043950;28;9789;-87
2023/07/06 01:58:01;;;;;;;;;7.00;5.00;;;;;;;;5053603;28;9716;-87
2023/07/06 02:00:31;;;;;;;;;4.50;4.50;;;;;;;;5071821;28;9754;-86
2023/07/06 02:03:05;;;;;;;;;6.50;5.00;;;;;;;;5057372;28;9918;-86
2023/07/06 02:05:33;;;;;;;;;6.00;4.25;;;;;;;;5062212;28;9880;-87
2023/07/06 02:08:01;;;;;;;;;6.25;4.00;;;;;;;;5068610;28;9871;-86
2023/07/06 02:10:30;;;;;;;;;3.50;3.50;;;;;;;;5069566;28;10255;-86
2023/07/06 02:12:57;;;;;;;;;4.25;4.00;;;;;;;;5072393;28;9886;-86
2023/07/06 02:15:25;;;;;;;;;4.50;4.50;;;;;;;;5059158;28;9930;-86
2023/07/06 02:17:55;;;;;;;;;2.25;2.25;;;;;;;;5062941;28;9941;-86
2023/07/06 02:20:24;;;;;;;;;4.00;4.00;;;;;;;;5061081;28;10087;-86
2023/07/06 02:22:51;;;;;;;;;5.25;5.00;;;;;;;;5064682;28;10863;-87
2023/07/06 02:25:20;;;;;;;;;5.00;5.00;;;;;;;;5051897;28;9950;-87
2023/07/06 02:27:48;;;;;;;;;3.75;3.00;;;;;;;;5058195;28;10030;-86
2023/07/06 02:30:16;;;;;;;;;5.50;4.00;;;;;;;;5055224;28;10059;-85
2023/07/06 02:32:43;;;;;;;;;5.00;5.00;;;;;;;;5056542;28;10156;-86
2023/07/06 02:35:11;;;;;;;;;7.00;5.00;;;;;;;;5059487;28;10038;-86
2023/07/06 02:37:40;;;;;;;;;5.00;5.00;;;;;;;;5052402;28;10083;-87
2023/07/06 02:40:10;;;;;;;;;4.75;4.75;;;;;;;;5051785;28;10093;-87
2023/07/06 02:42:40;;;;;;;;;4.00;4.00;;;;;;;;5059739;28;9935;-85
2023/07/06 02:45:09;;;;;;;;;5.00;5.00;;;;;;;;5055302;28;9981;-86
2023/07/06 02:47:38;;;;;;;;;1.50;1.50;;;;;;;;5052147;28;10085;-85
2023/07/06 02:50:07;;;;;;;;;6.00;4.25;;;;;;;;5052336;28;9935;-85
2023/07/06 02:52:34;;;;;;;;;4.50;4.50;;;;;;;;5053215;28;9947;-85
2023/07/06 02:55:03;;;;;;;;;6.50;5.25;;;;;;;;5052499;28;10028;-86
2023/07/06 02:57:31;;;;;;;;;4.00;4.00;;;;;;;;5045727;28;9939;-85
2023/07/06 02:59:58;;;;;;;;;6.00;6.00;;;;;;;;5051351;28;10035;-86
2023/07/06 03:02:26;;;;;;;;;8.00;5.25;;;;;;;;5050911;28;10057;-85
2023/07/06 03:04:53;;;;;;;;;7.00;7.00;;;;;;;;5060041;28;10129;-85
2023/07/06 03:07:23;;;;;;;;;6.00;5.00;;;;;;;;5057928;28;10724;-85
2023/07/06 03:09:50;;;;;;;;;4.00;4.00;;;;;;;;5056351;28;10100;-85
2023/07/06 03:12:19;;;;;;;;;4.50;4.50;;;;;;;;5056612;28;10176;-86
2023/07/06 03:14:47;;;;;;;;;5.25;4.00;;;;;;;;5055563;28;10064;-86
2023/07/06 03:17:15;;;;;;;;;4.00;4.00;;;;;;;;5055585;28;10001;-86
2023/07/06 03:19:45;;;;;;;;;7.25;6.00;;;;;;;;5042587;28;9982;-86
2023/07/06 03:22:17;;;;;;;;;4.50;4.50;;;;;;;;5054875;28;10101;-86
2023/07/06 03:24:45;;;;;;;;;4.25;4.25;;;;;;;;5062783;28;10166;-86
2023/07/06 03:27:12;;;;;;;;;4.50;4.50;;;;;;;;5059756;28;10285;-86
2023/07/06 03:29:41;;;;;;;;;4.00;4.00;;;;;;;;5055084;28;10138;-86
2023/07/06 03:32:11;;;;;;;;;3.25;3.25;;;;;;;;5057838;28;10117;-85
2023/07/06 03:34:38;;;;;;;;;4.00;4.00;;;;;;;;5058740;28;9947;-85
2023/07/06 03:37:06;;;;;;;;;6.00;5.00;;;;;;;;5053535;28;9968;-85
2023/07/06 03:39:33;;;;;;;;;5.25;5.25;;;;;;;;5052400;28;10199;-85
2023/07/06 03:42:02;;;;;;;;;5.75;5.00;;;;;;;;5051876;28;10117;-85
2023/07/06 03:44:30;;;;;;;;;5.00;5.00;;;;;;;;5049122;28;10038;-86
2023/07/06 03:47:01;;;;;;;;;5.00;5.00;;;;;;;;5049677;28;10230;-85
2023/07/06 03:49:34;;;;;;;;;3.25;3.25;;;;;;;;5049772;28;10032;-87
2023/07/06 03:52:02;;;;;;;;;5.00;5.00;;;;;;;;5050072;28;10208;-87
2023/07/06 03:54:29;;;;;;;;;4.50;4.00;;;;;;;;5049636;28;10074;-86
2023/07/06 03:56:57;;;;;;;;;4.75;4.75;;;;;;;;5068396;28;10103;-87
2023/07/06 03:59:27;;;;;;;;;4.25;4.25;;;;;;;;5055541;28;10171;-86
2023/07/06 04:01:54;;;;;;;;;4.50;4.50;;;;;;;;5036620;28;10220;-84
2023/07/06 04:04:28;;;;;;;;;5.75;4.00;;;;;;;;5062371;28;10088;-86
2023/07/06 04:06:55;;;;;;;;;5.00;5.00;;;;;;;;5058026;28;10090;-85
2023/07/06 04:09:24;;;;;;;;;3.00;3.00;;;;;;;;5067282;28;10156;-77
2023/07/06 04:11:52;;;;;;;;;7.25;5.00;;;;;;;;5049103;28;10095;-79
2023/07/06 04:14:24;;;;;;;;;6.00;4.50;;;;;;;;5051148;28;10186;-80
2023/07/06 04:16:52;;;;;;;;;4.25;4.25;;;;;;;;5068018;28;10252;-78
2023/07/06 04:19:19;;;;;;;;;6.00;6.00;;;;;;;;5056391;28;10120;-78
2023/07/06 04:21:48;;;;;;;;;6.00;5.00;;;;;;;;5068419;28;10256;-79
2023/07/06 04:24:16;;;;;;;;;6.75;6.75;;;;;;;;5067828;28;10121;-83
2023/07/06 04:26:45;;;;;;;;;6.00;6.00;;;;;;;;5069636;28;10231;-85
2023/07/06 04:29:12;;;;;;;;;5.00;5.00;;;;;;;;5069130;28;10361;-87
2023/07/06 04:31:41;;;;;;;;;5.00;5.00;;;;;;;;5071130;28;10065;-87
2023/07/06 04:34:09;;;;;;;;;6.75;5.00;;;;;;;;5069268;28;10242;-81
2023/07/06 04:36:36;;;;;;;;;5.00;5.00;;;;;;;;5061880;28;10098;-86
2023/07/06 04:39:07;;;;;;;;;5.50;5.50;;;;;;;;5053869;28;10043;-77
2023/07/06 04:41:37;;;;;;;;;4.25;4.25;;;;;;;;5052581;28;9930;-85
2023/07/06 04:44:05;;;;;;;;;8.25;6.25;;;;;;;;5058686;28;10258;-81
2023/07/06 04:46:32;;;;;;;;;6.50;5.00;;;;;;;;5057724;28;10337;-75
2023/07/06 04:49:01;;;;;;;;;5.00;5.00;;;;;;;;5064687;28;10025;-83
2023/07/06 04:51:28;;;;;;;;;5.00;4.50;;;;;;;;5058629;28;10017;-84
2023/07/06 04:53:56;;;;;;;;;5.00;5.00;;;;;;;;5050103;28;10169;-85
2023/07/06 04:56:25;;;;;;;;;6.00;6.00;;;;;;;;5051625;28;10038;-82
2023/07/06 04:58:53;;;;;;;;;7.00;6.00;;;;;;;;5051367;28;9932;-85
2023/07/06 05:01:23;;;;;;;;;2.00;2.00;;;;;;;;5053413;28;9836;-84
2023/07/06 05:03:52;;;;;;;;;5.00;5.00;;;;;;;;5051075;28;9834;-84
2023/07/06 05:06:19;;;;;;;;;5.75;5.25;;;;;;;;5054364;28;9808;-84
2023/07/06 05:08:49;;;;;;;;;5.50;4.50;;;;;;;;5051372;28;9765;-88
2023/07/06 05:11:17;;;;;;;;;4.50;4.00;;;;;;;;5050892;28;9705;-85
2023/07/06 05:13:48;;;;;;;;;5.00;5.00;;;;;;;;5061549;28;9653;-89
2023/07/06 05:16:15;;;;;;;;;5.75;5.75;;;;;;;;5048110;28;9643;-88
2023/07/06 05:18:44;;;;;;;;;4.00;4.00;;;;;;;;5062153;28;9540;-88
2023/07/06 05:21:11;;;;;;;;;8.00;6.25;;;;;;;;5059302;28;9567;-86
2023/07/06 05:23:40;;;;;;;;;6.00;6.00;;;;;;;;5059337;28;9577;-84
2023/07/06 05:26:08;;;;;;;;;6.50;6.50;;;;;;;;5058575;28;9469;-86
2023/07/06 05:28:35;;;;;;;;;7.67;5.33;;;;;;;;5057617;28;9541;-86
2023/07/06 05:31:05;;;;;;;;;5.00;5.00;;;;;;;;5060332;28;9374;-83
2023/07/06 05:33:33;;;;;;;;;6.33;6.33;;;;;;;;5064027;28;10238;-80
2023/07/06 05:36:00;;;;;;;;;6.33;6.33;;;;;;;;5048688;28;9485;-85
2023/07/06 05:38:27;;;;;;;;;6.67;6.67;;;;;;;;5052273;28;9442;-84
2023/07/06 05:40:55;;;;;;;;;6.00;6.00;;;;;;;;5065079;28;9402;-86
2023/07/06 05:43:22;;;;;;;;;6.00;6.00;;;;;;;;5053698;28;9409;-83
2023/07/06 05:45:49;;;;;;;;;6.67;6.33;;;;;;;;5042244;28;9336;-81
2023/07/06 05:48:18;;;;;;;;;8.67;7.00;;;;;;;;5053744;28;9262;-87
2023/07/06 05:50:45;;;;;;;;;8.00;8.00;;;;;;;;5060840;28;9226;-88
2023/07/06 05:53:13;;;;;;;;;9.67;9.67;;;;;;;;5055470;28;9072;-86
2023/07/06 05:55:43;;;;;;;;;6.00;6.00;;;;;;;;5051857;28;9232;-81
2023/07/06 05:58:11;;;;;;;;;8.00;8.00;;;;;;;;5053673;28;9088;-78
2023/07/06 06:00:41;;;;;;;;;9.67;9.33;;;;;;;;5055020;28;9015;-82
2023/07/06 06:03:08;;;;;;;;;8.00;6.00;;;;;;;;5054736;28;9071;-83
2023/07/06 06:05:37;;;;;;;;;8.00;8.00;;;;;;;;5057672;28;9125;-88
2023/07/06 06:08:04;;;;;;;;;8.33;8.33;;;;;;;;5055704;28;9034;-87
2023/07/06 06:10:33;;;;;;;;;5.75;5.75;;;;;;;;5056507;28;9029;-86
2023/07/06 06:13:00;;;;;;;;;8.00;8.00;;;;;;;;5054484;28;8876;-85
2023/07/06 06:15:27;;;;;;;;;11.75;9.75;;;;;;;;5057293;28;8888;-87
2023/07/06 06:17:55;;;;;;;;;10.33;9.00;;;;;;;;5072431;28;8955;-87
2023/07/06 06:20:22;;;;;;;;;8.25;8.25;;;;;;;;5055645;28;8972;-86
2023/07/06 06:22:51;;;;;;;;;9.50;8.25;;;;;;;;5051645;28;8877;-86
2023/07/06 06:25:19;;;;;;;;;8.50;8.50;;;;;;;;5056913;28;9011;-87
2023/07/06 06:27:47;;;;;;;;;7.25;7.25;;;;;;;;5052111;28;8904;-89
2023/07/06 06:30:15;;;;;;;;;8.50;7.00;;;;;;;;5053950;28;8893;-88
2023/07/06 06:32:43;;;;;;;;;7.00;7.00;;;;;;;;5058226;28;8865;-81
2023/07/06 06:35:24;;;;;;;;;7.75;7.75;;;;;;;;5073389;28;8835;-83
2023/07/06 06:37:53;;;;;;;;;6.00;6.00;;;;;;;;5045520;28;8862;-84
2023/07/06 06:40:21;;;;;;;;;6.50;6.25;;;;;;;;5052454;28;8857;-81
2023/07/06 06:42:49;;;;;;;;;7.25;7.25;;;;;;;;5051179;28;8870;-87
2023/07/06 06:45:16;;;;;;;;;5.00;5.00;;;;;;;;5051871;28;8857;-84
2023/07/06 06:47:44;;;;;;;;;7.75;6.50;;;;;;;;5063829;28;8851;-84
2023/07/06 06:50:13;;;;;;;;;6.50;5.75;;;;;;;;5052803;28;8923;-85
2023/07/06 06:52:41;;;;;;;;;6.00;6.00;;;;;;;;5052903;28;8880;-86
2023/07/06 06:55:11;;;;;;;;;4.75;4.75;;;;;;;;5054980;28;8857;-86
2023/07/06 06:57:38;;;;;;;;;4.25;4.25;;;;;;;;5052658;28;8888;-85
2023/07/06 07:00:09;;;;;;;;;6.25;5.00;;;;;;;;5055766;28;8969;-79
2023/07/06 07:02:38;;;;;;;;;4.00;4.00;;;;;;;;5056613;28;8881;-84
2023/07/06 07:05:06;;;;;;;;;4.50;4.50;;;;;;;;5050464;28;9691;-83
2023/07/06 07:07:37;;;;;;;;;6.75;3.00;;;;;;;;5051635;28;8845;-85
2023/07/06 07:10:05;;;;;;;;;3.75;3.00;;;;;;;;5044422;28;8915;-85
2023/07/06 07:12:33;;;;;;;;;3.00;3.00;;;;;;;;5066307;28;8989;-77
2023/07/06 07:15:01;;;;;;;;;5.50;4.00;;;;;;;;5057373;28;8877;-89
2023/07/06 07:17:28;;;;;;;;;3.75;3.75;;;;;;;;5052679;28;8845;-87
2023/07/06 07:19:55;;;;;;;;;3.75;3.75;;;;;;;;5051056;28;8861;-84
2023/07/06 07:22:23;;;;;;;;;6.50;5.00;;;;;;;;5050306;28;8834;-92
2023/07/06 07:24:50;;;;;;;;;4.00;4.00;;;;;;;;5059332;28;8925;-94
2023/07/06 07:27:18;;;;;;;;;6.00;6.00;;;;;;;;5063984;28;8845;-90
2023/07/06 07:29:47;;;;;;;;;6.75;5.75;;;;;;;;5050971;28;8870;-87
2023/07/06 07:32:14;;;;;;;;;10.50;8.25;;;;;;;;5052516;28;8784;-87
2023/07/06 07:34:43;;;;;;;;;6.00;6.00;;;;;;;;5060912;28;8858;-88
2023/07/06 07:37:14;;;;;;;;;6.50;6.50;;;;;;;;5052600;28;8884;-92
2023/07/06 07:39:41;;;;;;;;;4.00;4.00;;;;;;;;5051833;28;8873;-93
2023/07/06 07:42:10;;;;;;;;;7.00;6.00;;;;;;;;5055727;28;8885;-93
2023/07/06 07:44:37;;;;;;;;;2.25;2.25;;;;;;;;5068424;28;9005;-89
2023/07/06 07:47:06;;;;;;;;;6.00;6.00;;;;;;;;5071442;28;8869;-89
2023/07/06 07:52:19;;;;;;;;;3.25;3.25;;;;;;;;5067148;28;9260;-81
2023/07/06 07:54:48;;;;;;;;;4.00;4.00;;;;;;;;5054318;28;9633;-85
2023/07/06 07:57:15;;;;;;;;;5.00;5.00;;;;;;;;5062807;28;8846;-94
2023/07/06 07:59:42;;;;;;;;;4.00;4.00;;;;;;;;5056834;28;8861;-86
2023/07/06 08:02:11;;;;;;;;;2.75;2.75;;;;;;;;5049489;28;8773;-87
2023/07/06 08:04:38;;;;;;;;;4.25;4.00;;;;;;;;5048759;28;8857;-80
2023/07/06 08:07:05;;;;;;;;;3.00;3.00;;;;;;;;5055627;28;8857;-87
2023/07/06 08:09:33;;;;;;;;;3.00;3.00;;;;;;;;5059759;28;8854;-76
2023/07/06 08:12:03;;;;;;;;;3.40;3.40;;;;;;;;5058800;28;9664;-80
2023/07/06 08:14:35;;;;;;;;;3.20;3.20;;;;;;;;5054732;28;8866;-89
2023/07/06 08:17:04;;;;;;;;;3.80;3.80;;;;;;;;5058606;28;8853;-83
2023/07/06 08:19:33;;;;;;;;;3.00;3.00;;;;;;;;5059458;28;8873;-88
2023/07/06 08:22:00;;;;;;;;;2.00;2.00;;;;;;;;5060050;28;8851;-90
2023/07/06 08:24:29;;;;;;;;;4.00;3.00;;;;;;;;5058299;28;8881;-91
2023/07/06 08:26:58;;;;;;;;;2.80;2.80;;;;;;;;5060092;28;8838;-91
2023/07/06 08:29:26;;;;;;;;;2.40;2.40;;;;;;;;5056948;28;8887;-91
2023/07/06 08:31:56;;;;;;;;;2.60;2.60;;;;;;;;5053994;28;8819;-90
2023/07/06 08:34:26;;;;;;;;;3.20;3.20;;;;;;;;5055722;28;8853;-85
2023/07/06 08:36:55;;;;;;;;;5.20;3.00;;;;;;;;5052855;28;8873;-90
2023/07/06 08:39:25;;;;;;;;;3.00;3.00;;;;;;;;5049667;28;8884;-86
2023/07/06 08:41:54;;;;;;;;;2.40;2.40;;;;;;;;5050294;28;8911;-92
2023/07/06 08:44:21;;;;;;;;;4.40;4.40;;;;;;;;5049562;28;8863;-91
2023/07/06 08:46:49;;;;;;;;;1.80;1.80;;;;;;;;5050654;28;8977;-85
2023/07/06 08:49:29;;;;;;;;;3.40;1.60;;;;;;;;5058915;28;8920;-87
2023/07/06 08:52:03;;;;;;;;;4.00;2.00;;;;;;;;5051280;28;8842;-79
2023/07/06 08:54:31;;;;;;;;;2.20;2.20;;;;;;;;5050150;28;8881;-77
2023/07/06 08:56:59;;;;;;;;;4.20;3.20;;;;;;;;5049492;28;8868;-84
2023/07/06 08:59:38;;;;;;;;;3.00;3.00;;;;;;;;5049672;28;8988;-84
2023/07/06 09:02:16;;;;;;;;;2.00;2.00;;;;;;;;5046748;28;8799;-80
2023/07/06 09:04:44;;;;;;;;;2.80;2.80;;;;;;;;5052796;28;8872;-82
2023/07/06 09:07:14;;;;;;;;;2.60;2.60;;;;;;;;5050419;28;8853;-85
2023/07/06 09:09:42;;;;;;;;;3.20;2.80;;;;;;;;5050219;28;8893;-80
2023/07/06 09:12:14;;;;;;;;;2.00;2.00;;;;;;;;5061298;28;8843;-89
2023/07/06 09:14:42;;;;;;;;;2.60;2.00;;;;;;;;5054440;28;8885;-90
2023/07/06 09:17:16;;;;;;;;;2.00;2.00;;;;;;;;5053830;28;8864;-82
2023/07/06 09:19:44;;;;;;;;;2.00;2.00;;;;;;;;5053073;28;8885;-88
2023/07/06 09:22:13;;;;;;;;;2.60;2.60;;;;;;;;5054418;28;8884;-93
2023/07/06 09:24:45;;;;;;;;;2.00;2.00;;;;;;;;5055782;28;8857;-94
2023/07/06 09:27:18;;;;;;;;;2.00;2.00;;;;;;;;5069021;28;8843;-96
2023/07/06 09:29:46;;;;;;;;;2.40;1.80;;;;;;;;5071062;28;8845;-86
2023/07/06 09:32:17;;;;;;;;;1.60;1.60;;;;;;;;5057274;28;8980;-85
2023/07/06 09:34:45;;;;;;;;;1.40;1.40;;;;;;;;5058756;28;8881;-87
2023/07/06 09:37:15;;;;;;;;;1.40;1.40;;;;;;;;5061719;28;8892;-84
2023/07/06 09:39:48;;;;;;;;;2.40;2.40;;;;;;;;5061150;28;8895;-87
2023/07/06 09:42:17;;;;;;;;;2.20;1.20;;;;;;;;5063281;28;8861;-80
2023/07/06 09:44:44;;;;;;;;;2.20;2.20;;;;;;;;5060710;28;8897;-89
2023/07/06 09:47:12;;;;;;;;;4.60;3.40;;;;;;;;5052141;28;8881;-85
2023/07/06 09:49:45;;;;;;;;;3.80;3.80;;;;;;;;5051738;28;8866;-86
2023/07/06 09:52:15;;;;;;;;;2.00;2.00;;;;;;;;5052064;28;8983;-91
2023/07/06 09:54:49;;;;;;;;;1.60;1.60;;;;;;;;5053245;28;8861;-87
2023/07/06 09:57:16;;;;;;;;;1.80;1.80;;;;;;;;5052445;28;8865;-84
2023/07/06 09:59:46;;;;;;;;;2.00;2.00;;;;;;;;5051885;28;9003;-86
2023/07/06 10:02:32;;;;;;;;;3.40;2.20;;;;;;;;5058821;28;8950;-74
2023/07/06 10:05:16;;;;;;;;;1.20;1.20;;;;;;;;5052685;28;8939;-80
2023/07/06 10:07:52;;;;;;;;;2.40;2.40;;;;;;;;5054460;28;8838;-88
2023/07/06 10:10:23;;;;;;;;;1.20;1.20;;;;;;;;5059014;28;8877;-86
2023/07/06 10:12:55;;;;;;;;;3.40;1.60;;;;;;;;5066803;28;8993;-85
2023/07/06 10:15:27;;;;;;;;;2.20;2.20;;;;;;;;5053867;28;8869;-83
2023/07/06 10:18:02;;;;;;;;;2.20;2.20;;;;;;;;5051979;28;8849;-90
2023/07/06 10:20:35;;;;;;;;;1.20;1.20;;;;;;;;5065173;28;8888;-84
2023/07/06 10:23:22;;;;;;;;;1.20;1.20;;;;;;;;5068152;28;8973;-90
2023/07/06 10:25:56;;;;;;;;;1.80;1.80;;;;;;;;5051220;28;8857;-86
2023/07/06 10:28:26;;;;;;;;;1.20;1.20;;;;;;;;5051944;28;8980;-90
2023/07/06 10:30:56;;;;;;;;;2.00;1.20;;;;;;;;5051124;28;8790;-88
2023/07/06 10:33:27;;;;;;;;;0.20;0.20;;;;;;;;5053666;28;8849;-89
2023/07/06 10:35:55;;;;;;;;;1.80;1.80;;;;;;;;5052845;28;8873;-91
2023/07/06 10:38:23;;;;;;;;;2.20;2.20;;;;;;;;5051671;28;8864;-80
2023/07/06 10:40:51;;;;;;;;;0.80;0.80;;;;;;;;5052630;28;8865;-82
2023/07/06 10:43:21;;;;;;;;;3.20;1.00;;;;;;;;5051946;28;8868;-82
2023/07/06 10:45:50;;;;;;;;;3.20;1.20;;;;;;;;5049062;28;8847;-92
2023/07/06 10:48:28;;;;;;;;;1.20;1.20;;;;;;;;5056738;28;8841;-83
2023/07/06 10:51:18;;;;;;;;;1.40;1.40;;;;;;;;5051981;28;8842;-92
2023/07/06 10:53:53;;;;;;;;;1.60;1.60;;;;;;;;5061393;28;8838;-79
2023/07/06 10:56:22;;;;;;;;;0.20;0.20;;;;;;;;5065556;28;8878;-77
2023/07/06 10:58:55;;;;;;;;;7.00;2.20;;;;;;;;5041794;28;8988;-94
2023/07/06 11:01:24;;;;;;;;;0.80;0.80;;;;;;;;5052574;28;9820;-83
2023/07/06 11:03:52;;;;;;;;;2.20;2.20;;;;;;;;5052655;28;8877;-76
2023/07/06 11:06:53;;;;;;;;;2.20;2.20;;;;;;;;5053511;28;8861;-88
2023/07/06 11:09:21;;;;;;;;;1.20;1.20;;;;;;;;5060172;28;8879;-87
2023/07/06 11:12:11;;;;;;;;;2.20;2.20;;;;;;;;5065678;28;8826;-86
2023/07/06 11:14:41;;;;;;;;;1.40;1.40;;;;;;;;5058046;28;8885;-86
2023/07/06 11:17:20;;;;;;;;;2.80;2.80;;;;;;;;5067808;28;8901;-82
2023/07/06 11:19:53;;;;;;;;;1.20;1.20;;;;;;;;5070000;28;8965;-88
2023/07/06 11:22:23;;;;;;;;;2.80;1.00;;;;;;;;5060112;28;8993;-86
2023/07/06 11:24:56;;;;;;;;;1.00;1.00;;;;;;;;5061287;28;8892;-83
2023/07/06 11:27:26;;;;;;;;;1.20;1.20;;;;;;;;5052463;28;9669;-77
2023/07/06 11:29:55;;;;;;;;;1.00;1.00;;;;;;;;5050427;28;8857;-78
2023/07/06 11:32:29;;;;;;;;;1.00;1.00;;;;;;;;5051102;28;8843;-84
2023/07/06 11:35:17;;;;;;;;;0.20;0.20;;;;;;;;5051691;28;8868;-81
2023/07/06 11:37:54;;;;;;;;;2.00;2.00;;;;;;;;5040251;28;8872;-89
2023/07/06 11:40:38;;;;;;;;;2.00;2.00;;;;;;;;5050156;28;8868;-85
2023/07/06 11:43:22;;;;;;;;;1.00;1.00;;;;;;;;5050605;28;8846;-85
2023/07/06 11:45:55;;;;;;;;;1.00;1.00;;;;;;;;5037864;28;8854;-82
2023/07/06 11:48:33;;;;;;;;;2.80;1.00;;;;;;;;5051078;28;8867;-88
2023/07/06 11:51:01;;;;;;;;;2.00;2.00;;;;;;;;5049567;28;8853;-77
2023/07/06 11:53:42;;;;;;;;;1.80;1.80;;;;;;;;5049201;28;8830;-78
2023/07/06 11:56:32;;;;;;;;;2.00;2.00;;;;;;;;5048712;28;8874;-83
2023/07/06 11:59:04;;;;;;;;;3.60;2.20;;;;;;;;5045146;28;8872;-86
2023/07/06 12:01:40;;;;;;;;;1.00;1.00;;;;;;;;5053587;28;8922;-85
2023/07/06 12:04:15;;;;;;;;;1.20;1.20;;;;;;;;5056037;28;8933;-90
2023/07/06 12:06:43;;;;;;;;;0.60;0.60;;;;;;;;5052809;28;8892;-84
2023/07/06 12:09:17;;;;;;;;;2.00;2.00;;;;;;;;5054238;28;8857;-88
2023/07/06 12:11:47;;;;;;;;;4.00;2.00;;;;;;;;5043258;28;8849;-80
2023/07/06 12:14:20;;;;;;;;;1.20;0.60;;;;;;;;5055768;28;8835;-89
2023/07/06 12:16:49;;;;;;;;;1.00;1.00;;;;;;;;5060116;28;8865;-90
2023/07/06 12:19:18;;;;;;;;;2.40;2.40;;;;;;;;5055899;28;8957;-87
2023/07/06 12:21:46;;;;;;;;;1.40;1.00;;;;;;;;5062294;28;8835;-89
2023/07/06 12:24:15;;;;;;;;;3.80;1.60;;;;;;;;5055395;28;8989;-84
2023/07/06 12:26:45;;;;;;;;;0.80;0.80;;;;;;;;5052392;28;8903;-82
2023/07/06 12:29:15;;;;;;;;;2.00;2.00;;;;;;;;5055483;28;8865;-89
2023/07/06 12:31:43;;;;;;;;;1.00;1.00;;;;;;;;5053448;28;8853;-87
2023/07/06 12:34:12;;;;;;;;;2.00;2.00;;;;;;;;5051781;28;8853;-84
2023/07/06 12:36:43;;;;;;;;;1.40;1.40;;;;;;;;5050598;28;8857;-90
2023/07/06 12:39:14;;;;;;;;;2.40;1.60;;;;;;;;5053979;28;8869;-81
2023/07/06 12:41:42;;;;;;;;;1.60;1.60;;;;;;;;5056981;28;8863;-87
2023/07/06 12:44:17;;;;;;;;;2.60;2.60;;;;;;;;5055512;28;8883;-86
2023/07/06 12:46:51;;;;;;;;;2.60;1.00;;;;;;;;5055175;28;8839;-90
2023/07/06 12:49:22;;;;;;;;;1.60;1.60;;;;;;;;5068065;28;8883;-88
2023/07/06 12:51:54;;;;;;;;;1.80;1.60;;;;;;;;5062092;28;8968;-82
2023/07/06 12:54:24;;;;;;;;;2.00;2.00;;;;;;;;5054100;28;8877;-81
2023/07/06 12:56:59;;;;;;;;;1.60;1.60;;;;;;;;5063031;28;8885;-86
2023/07/06 12:59:33;;;;;;;;;1.40;1.40;;;;;;;;5061848;28;8972;-78
2023/07/06 13:02:07;;;;;;;;;1.60;1.60;;;;;;;;5057123;28;8806;-84
2023/07/06 13:04:43;;;;;;;;;2.40;2.20;;;;;;;;5051985;28;8861;-86
2023/07/06 13:07:16;;;;;;;;;2.00;2.00;;;;;;;;5052853;28;8853;-80
2023/07/06 13:09:44;;;;;;;;;2.80;2.80;;;;;;;;5052815;28;8861;-79
2023/07/06 13:12:18;;;;;;;;;1.60;1.60;;;;;;;;5053594;28;9767;-82
2023/07/06 13:14:50;;;;;;;;;3.80;2.00;;;;;;;;5052424;28;8838;-78
2023/07/06 13:17:25;;;;;;;;;2.00;0.80;;;;;;;;5054772;28;8855;-79
2023/07/06 13:19:55;;;;;;;;;1.80;1.80;;;;;;;;5044201;28;8857;-81
2023/07/06 13:22:23;;;;;;;;;2.20;2.20;;;;;;;;5053744;28;8853;-86
2023/07/06 13:24:50;;;;;;;;;1.00;1.00;;;;;;;;5060329;28;8870;-84
2023/07/06 13:27:20;;;;;;;;;4.00;2.20;;;;;;;;5053142;28;8849;-90
2023/07/06 13:29:50;;;;;;;;;1.60;1.60;;;;;;;;5056223;28;9636;-81
2023/07/06 13:32:20;;;;;;;;;2.60;2.60;;;;;;;;5059059;28;8822;-81
2023/07/06 13:34:49;;;;;;;;;1.60;1.60;;;;;;;;5054144;28;8858;-81
2023/07/06 13:37:23;;;;;;;;;1.60;0.00;;;;;;;;5050981;28;8902;-87
2023/07/06 13:39:50;;;;;;;;;2.20;1.00;;;;;;;;5051822;28;8980;-83
2023/07/06 13:42:21;;;;;;;;;1.60;1.60;;;;;;;;5051977;28;9647;-79
2023/07/06 13:44:51;;;;;;;;;1.60;1.60;;;;;;;;5052602;28;8942;-81
2023/07/06 13:47:18;;;;;;;;;1.00;1.00;;;;;;;;5051670;28;8838;-79
2023/07/06 13:49:47;;;;;;;;;5.80;3.00;;;;;;;;5064361;28;8854;-82
2023/07/06 13:52:15;;;;;;;;;0.00;0.00;;;;;;;;5052790;28;8889;-87
2023/07/06 13:54:45;;;;;;;;;1.00;1.00;;;;;;;;5055681;28;9008;-88
2023/07/06 13:57:12;;;;;;;;;2.00;2.00;;;;;;;;5043935;28;8877;-89
2023/07/06 13:59:39;;;;;;;;;1.40;1.40;;;;;;;;5053627;28;8865;-88
2023/07/06 14:02:12;;;;;;;;;2.40;2.40;;;;;;;;5052496;28;8805;-89
2023/07/06 14:04:41;;;;;;;;;2.20;2.20;;;;;;;;5051906;28;8919;-88
2023/07/06 14:07:09;;;;;;;;;2.00;2.00;;;;;;;;5060246;28;8851;-88
2023/07/06 14:09:37;;;;;;;;;2.00;2.00;;;;;;;;5054330;28;8853;-87
2023/07/06 14:12:06;;;;;;;;;1.20;1.20;;;;;;;;5052006;28;9019;-88
2023/07/06 14:14:34;;;;;;;;;1.60;1.60;;;;;;;;5052421;28;9659;-87
2023/07/06 14:17:03;;;;;;;;;0.80;0.80;;;;;;;;5053556;28;8857;-86
2023/07/06 14:19:33;;;;;;;;;1.40;1.40;;;;;;;;5052972;28;8849;-86
2023/07/06 14:22:00;;;;;;;;;2.00;2.00;;;;;;;;5064086;28;8883;-87
2023/07/06 14:24:31;;;;;;;;;1.80;1.80;;;;;;;;5053703;28;9067;-87
2023/07/06 14:26:59;;;;;;;;;2.80;2.00;;;;;;;;5053333;28;8849;-87
2023/07/06 14:29:27;;;;;;;;;2.80;2.80;;;;;;;;5061558;28;8867;-87
2023/07/06 14:31:55;;;;;;;;;2.00;2.00;;;;;;;;5060226;28;8794;-83
2023/07/06 14:34:24;;;;;;;;;0.00;0.00;;;;;;;;5059280;28;8849;-86
2023/07/06 14:36:52;;;;;;;;;1.80;1.80;;;;;;;;5055398;28;8849;-82
2023/07/06 14:39:19;;;;;;;;;1.00;1.00;;;;;;;;5052446;28;9632;-81
2023/07/06 14:41:48;;;;;;;;;1.80;1.80;;;;;;;;5064238;28;8989;-86
2023/07/06 14:44:15;;;;;;;;;2.00;2.00;;;;;;;;5051654;28;8850;-80
2023/07/06 14:46:42;;;;;;;;;3.20;2.00;;;;;;;;5052411;28;8980;-80
2023/07/06 14:49:10;;;;;;;;;1.20;1.20;;;;;;;;5051948;28;8996;-80
2023/07/06 14:51:37;;;;;;;;;1.00;1.00;;;;;;;;5051644;28;8866;-85
2023/07/06 14:54:07;;;;;;;;;2.00;2.00;;;;;;;;5051687;28;8865;-84
2023/07/06 14:56:34;;;;;;;;;4.00;2.00;;;;;;;;5052622;28;8851;-83
2023/07/06 14:59:02;;;;;;;;;1.80;1.80;;;;;;;;5051794;28;8872;-81
2023/07/06 15:01:30;;;;;;;;;2.00;2.00;;;;;;;;5051250;28;8885;-87
2023/07/06 15:03:57;;;;;;;;;3.20;1.40;;;;;;;;5052104;28;8865;-86
2023/07/06 15:06:25;;;;;;;;;1.60;1.60;;;;;;;;5051903;28;8865;-82
2023/07/06 15:08:52;;;;;;;;;2.00;2.00;;;;;;;;5052240;28;8873;-80
2023/07/06 15:11:22;;;;;;;;;1.20;1.20;;;;;;;;5055704;28;8909;-85
2023/07/06 15:13:50;;;;;;;;;2.40;2.40;;;;;;;;5064918;28;8859;-83
2023/07/06 15:16:17;;;;;;;;;2.40;2.40;;;;;;;;5055960;28;8918;-82